sensor_id;sensor_type;location;lat;lon;timestamp;P1;durP1;ratioP1;P2;durP2;ratioP2
74995;SDS011;63545;51.690;5.202;2022-10-30T00:00:48;22.03;;;8.57;;
74995;SDS011;63545;51.690;5.202;2022-10-30T00:03:13;23.47;;;8.53;;
74995;SDS011;63545;51.690;5.202;2022-10-30T00:05:43;22.63;;;8.68;;
74995;SDS011;63545;51.690;5.202;2022-10-30T00:08:11;23.25;;;9.30;;
74995;SDS011;63545;51.690;5.202;2022-10-30T00:10:37;26.23;;;8.90;;
74995;SDS011;63545;51.690;5.202;2022-10-30T00:13:03;18.83;;;8.60;;
74995;SDS011;63545;51.690;5.202;2022-10-30T00:15:29;25.55;;;8.50;;
74995;SDS011;63545;51.690;5.202;2022-10-30T00:17:54;27.27;;;8.80;;
74995;SDS011;63545;51.690;5.202;2022-10-30T00:20:19;21.17;;;8.50;;
74995;SDS011;63545;51.690;5.202;2022-10-30T00:22:45;22.60;;;9.10;;
74995;SDS011;63545;51.690;5.202;2022-10-30T00:25:10;21.13;;;8.87;;
74995;SDS011;63545;51.690;5.202;2022-10-30T00:27:35;23.33;;;9.07;;
74995;SDS011;63545;51.690;5.202;2022-10-30T00:30:01;21.30;;;8.53;;
74995;SDS011;63545;51.690;5.202;2022-10-30T00:32:26;21.70;;;8.23;;
74995;SDS011;63545;51.690;5.202;2022-10-30T00:34:52;24.97;;;8.77;;
74995;SDS011;63545;51.690;5.202;2022-10-30T00:37:17;26.87;;;8.60;;
74995;SDS011;63545;51.690;5.202;2022-10-30T00:39:42;16.97;;;8.83;;
74995;SDS011;63545;51.690;5.202;2022-10-30T00:42:11;20.03;;;8.80;;
74995;SDS011;63545;51.690;5.202;2022-10-30T00:44:44;23.08;;;9.00;;
74995;SDS011;63545;51.690;5.202;2022-10-30T00:47:17;21.20;;;8.93;;
74995;SDS011;63545;51.690;5.202;2022-10-30T00:50:00;22.60;;;8.70;;
74995;SDS011;63545;51.690;5.202;2022-10-30T00:52:30;26.73;;;9.68;;
74995;SDS011;63545;51.690;5.202;2022-10-30T00:54:58;18.43;;;8.27;;
74995;SDS011;63545;51.690;5.202;2022-10-30T00:57:28;20.58;;;8.50;;
74995;SDS011;63545;51.690;5.202;2022-10-30T00:59:53;18.42;;;8.45;;
74995;SDS011;63545;51.690;5.202;2022-10-30T01:02:19;21.83;;;8.87;;
74995;SDS011;63545;51.690;5.202;2022-10-30T01:04:45;19.10;;;8.80;;
74995;SDS011;63545;51.690;5.202;2022-10-30T01:07:12;20.30;;;8.77;;
74995;SDS011;63545;51.690;5.202;2022-10-30T01:09:39;16.25;;;8.73;;
74995;SDS011;63545;51.690;5.202;2022-10-30T01:12:04;21.27;;;9.03;;
74995;SDS011;63545;51.690;5.202;2022-10-30T01:14:30;21.13;;;8.95;;
74995;SDS011;63545;51.690;5.202;2022-10-30T01:16:57;16.97;;;8.63;;
74995;SDS011;63545;51.690;5.202;2022-10-30T01:19:38;20.50;;;9.02;;
74995;SDS011;63545;51.690;5.202;2022-10-30T01:25:05;25.13;;;9.57;;
74995;SDS011;63545;51.690;5.202;2022-10-30T01:33:23;23.52;;;9.20;;
74995;SDS011;63545;51.690;5.202;2022-10-30T01:38:41;22.25;;;9.30;;
74995;SDS011;63545;51.690;5.202;2022-10-30T01:41:09;22.30;;;9.13;;
74995;SDS011;63545;51.690;5.202;2022-10-30T01:43:34;20.10;;;9.30;;
74995;SDS011;63545;51.690;5.202;2022-10-30T01:52:10;20.08;;;9.10;;
74995;SDS011;63545;51.690;5.202;2022-10-30T01:54:46;20.92;;;9.25;;
74995;SDS011;63545;51.690;5.202;2022-10-30T01:59:57;17.47;;;8.87;;
74995;SDS011;63545;51.690;5.202;2022-10-30T02:02:28;18.13;;;8.95;;
74995;SDS011;63545;51.690;5.202;2022-10-30T02:04:56;21.95;;;9.77;;
74995;SDS011;63545;51.690;5.202;2022-10-30T02:07:21;26.17;;;9.35;;
74995;SDS011;63545;51.690;5.202;2022-10-30T02:09:49;24.50;;;9.10;;
74995;SDS011;63545;51.690;5.202;2022-10-30T02:12:15;22.33;;;10.40;;
74995;SDS011;63545;51.690;5.202;2022-10-30T02:14:42;19.43;;;9.47;;
74995;SDS011;63545;51.690;5.202;2022-10-30T02:17:09;25.92;;;9.30;;
74995;SDS011;63545;51.690;5.202;2022-10-30T02:19:35;22.92;;;9.52;;
74995;SDS011;63545;51.690;5.202;2022-10-30T02:22:01;20.17;;;9.33;;
74995;SDS011;63545;51.690;5.202;2022-10-30T02:24:26;20.60;;;9.87;;
74995;SDS011;63545;51.690;5.202;2022-10-30T02:26:52;25.25;;;10.40;;
74995;SDS011;63545;51.690;5.202;2022-10-30T02:29:17;23.33;;;10.83;;
74995;SDS011;63545;51.690;5.202;2022-10-30T02:31:45;25.88;;;10.55;;
74995;SDS011;63545;51.690;5.202;2022-10-30T02:34:11;31.00;;;11.03;;
74995;SDS011;63545;51.690;5.202;2022-10-30T02:36:36;21.53;;;10.67;;
74995;SDS011;63545;51.690;5.202;2022-10-30T02:39:01;30.97;;;10.90;;
74995;SDS011;63545;51.690;5.202;2022-10-30T02:41:27;25.93;;;10.97;;
74995;SDS011;63545;51.690;5.202;2022-10-30T02:43:52;25.33;;;11.45;;
74995;SDS011;63545;51.690;5.202;2022-10-30T02:46:18;20.77;;;10.53;;
74995;SDS011;63545;51.690;5.202;2022-10-30T02:48:43;20.57;;;11.07;;
74995;SDS011;63545;51.690;5.202;2022-10-30T02:51:09;25.70;;;11.02;;
74995;SDS011;63545;51.690;5.202;2022-10-30T02:53:34;19.67;;;10.10;;
74995;SDS011;63545;51.690;5.202;2022-10-30T02:56:07;23.30;;;11.43;;
74995;SDS011;63545;51.690;5.202;2022-10-30T02:58:33;23.35;;;10.57;;
74995;SDS011;63545;51.690;5.202;2022-10-30T03:01:06;23.23;;;10.35;;
74995;SDS011;63545;51.690;5.202;2022-10-30T03:03:32;19.70;;;10.73;;
74995;SDS011;63545;51.690;5.202;2022-10-30T03:06:00;25.15;;;11.10;;
74995;SDS011;63545;51.690;5.202;2022-10-30T03:08:28;20.90;;;10.80;;
74995;SDS011;63545;51.690;5.202;2022-10-30T03:10:57;20.70;;;10.23;;
74995;SDS011;63545;51.690;5.202;2022-10-30T03:13:24;20.97;;;10.17;;
74995;SDS011;63545;51.690;5.202;2022-10-30T03:15:49;18.48;;;10.70;;
74995;SDS011;63545;51.690;5.202;2022-10-30T03:18:14;24.63;;;10.63;;
74995;SDS011;63545;51.690;5.202;2022-10-30T03:20:40;25.87;;;11.07;;
74995;SDS011;63545;51.690;5.202;2022-10-30T03:23:05;23.87;;;10.90;;
74995;SDS011;63545;51.690;5.202;2022-10-30T03:25:30;23.60;;;10.63;;
74995;SDS011;63545;51.690;5.202;2022-10-30T03:27:56;19.27;;;10.40;;
74995;SDS011;63545;51.690;5.202;2022-10-30T03:30:21;26.00;;;11.20;;
74995;SDS011;63545;51.690;5.202;2022-10-30T03:32:46;26.63;;;11.70;;
74995;SDS011;63545;51.690;5.202;2022-10-30T03:35:12;26.53;;;11.20;;
74995;SDS011;63545;51.690;5.202;2022-10-30T03:37:37;25.50;;;11.57;;
74995;SDS011;63545;51.690;5.202;2022-10-30T03:40:02;19.20;;;10.83;;
74995;SDS011;63545;51.690;5.202;2022-10-30T03:42:28;26.70;;;11.20;;
74995;SDS011;63545;51.690;5.202;2022-10-30T03:44:53;24.00;;;11.13;;
74995;SDS011;63545;51.690;5.202;2022-10-30T03:47:18;25.53;;;11.00;;
74995;SDS011;63545;51.690;5.202;2022-10-30T03:49:44;20.83;;;11.27;;
74995;SDS011;63545;51.690;5.202;2022-10-30T03:52:09;23.55;;;10.77;;
74995;SDS011;63545;51.690;5.202;2022-10-30T03:54:34;24.23;;;11.10;;
74995;SDS011;63545;51.690;5.202;2022-10-30T03:57:00;26.83;;;11.00;;
74995;SDS011;63545;51.690;5.202;2022-10-30T03:59:25;28.33;;;11.20;;
74995;SDS011;63545;51.690;5.202;2022-10-30T04:01:50;26.50;;;11.13;;
74995;SDS011;63545;51.690;5.202;2022-10-30T04:04:16;22.70;;;10.40;;
74995;SDS011;63545;51.690;5.202;2022-10-30T04:06:41;27.97;;;11.47;;
74995;SDS011;63545;51.690;5.202;2022-10-30T04:09:06;24.93;;;11.07;;
74995;SDS011;63545;51.690;5.202;2022-10-30T04:11:32;22.23;;;11.33;;
74995;SDS011;63545;51.690;5.202;2022-10-30T04:13:57;24.63;;;11.07;;
74995;SDS011;63545;51.690;5.202;2022-10-30T04:16:22;22.77;;;10.73;;
74995;SDS011;63545;51.690;5.202;2022-10-30T04:18:48;30.80;;;12.33;;
74995;SDS011;63545;51.690;5.202;2022-10-30T04:21:13;25.50;;;11.87;;
74995;SDS011;63545;51.690;5.202;2022-10-30T04:23:38;23.43;;;11.33;;
74995;SDS011;63545;51.690;5.202;2022-10-30T04:26:03;25.57;;;11.50;;
74995;SDS011;63545;51.690;5.202;2022-10-30T04:28:29;25.83;;;11.50;;
74995;SDS011;63545;51.690;5.202;2022-10-30T04:30:55;23.43;;;11.43;;
74995;SDS011;63545;51.690;5.202;2022-10-30T04:33:20;27.50;;;11.48;;
74995;SDS011;63545;51.690;5.202;2022-10-30T04:35:45;27.07;;;11.73;;
74995;SDS011;63545;51.690;5.202;2022-10-30T04:38:14;20.67;;;10.80;;
74995;SDS011;63545;51.690;5.202;2022-10-30T04:40:40;23.95;;;11.00;;
74995;SDS011;63545;51.690;5.202;2022-10-30T04:43:07;26.85;;;11.60;;
74995;SDS011;63545;51.690;5.202;2022-10-30T04:45:33;22.90;;;11.52;;
74995;SDS011;63545;51.690;5.202;2022-10-30T04:48:12;25.47;;;10.93;;
74995;SDS011;63545;51.690;5.202;2022-10-30T04:50:38;22.70;;;11.18;;
74995;SDS011;63545;51.690;5.202;2022-10-30T04:53:05;21.87;;;10.80;;
74995;SDS011;63545;51.690;5.202;2022-10-30T04:55:31;23.65;;;11.10;;
74995;SDS011;63545;51.690;5.202;2022-10-30T04:57:57;30.97;;;11.30;;
74995;SDS011;63545;51.690;5.202;2022-10-30T05:00:23;27.85;;;11.38;;
74995;SDS011;63545;51.690;5.202;2022-10-30T05:02:49;23.38;;;11.07;;
74995;SDS011;63545;51.690;5.202;2022-10-30T05:05:14;23.00;;;11.87;;
74995;SDS011;63545;51.690;5.202;2022-10-30T05:07:40;22.33;;;10.77;;
74995;SDS011;63545;51.690;5.202;2022-10-30T05:10:05;19.53;;;10.73;;
74995;SDS011;63545;51.690;5.202;2022-10-30T05:12:30;27.27;;;11.35;;
74995;SDS011;63545;51.690;5.202;2022-10-30T05:14:56;25.53;;;10.57;;
74995;SDS011;63545;51.690;5.202;2022-10-30T05:17:21;27.03;;;10.93;;
74995;SDS011;63545;51.690;5.202;2022-10-30T05:19:46;22.10;;;10.70;;
74995;SDS011;63545;51.690;5.202;2022-10-30T05:22:12;30.07;;;11.53;;
74995;SDS011;63545;51.690;5.202;2022-10-30T05:24:37;19.77;;;11.70;;
74995;SDS011;63545;51.690;5.202;2022-10-30T05:27:02;29.00;;;11.60;;
74995;SDS011;63545;51.690;5.202;2022-10-30T05:29:28;24.95;;;11.02;;
74995;SDS011;63545;51.690;5.202;2022-10-30T05:31:53;25.73;;;11.77;;
74995;SDS011;63545;51.690;5.202;2022-10-30T05:34:18;28.97;;;11.83;;
74995;SDS011;63545;51.690;5.202;2022-10-30T05:36:44;23.40;;;11.70;;
74995;SDS011;63545;51.690;5.202;2022-10-30T05:39:09;28.33;;;11.67;;
74995;SDS011;63545;51.690;5.202;2022-10-30T05:41:34;22.80;;;11.43;;
74995;SDS011;63545;51.690;5.202;2022-10-30T05:44:00;23.73;;;11.43;;
74995;SDS011;63545;51.690;5.202;2022-10-30T05:46:25;25.73;;;11.57;;
74995;SDS011;63545;51.690;5.202;2022-10-30T05:48:50;32.27;;;12.40;;
74995;SDS011;63545;51.690;5.202;2022-10-30T05:51:16;26.63;;;11.43;;
74995;SDS011;63545;51.690;5.202;2022-10-30T05:53:41;21.00;;;11.30;;
74995;SDS011;63545;51.690;5.202;2022-10-30T05:56:06;22.97;;;11.70;;
74995;SDS011;63545;51.690;5.202;2022-10-30T05:58:32;23.10;;;11.47;;
74995;SDS011;63545;51.690;5.202;2022-10-30T06:00:57;24.87;;;11.83;;
74995;SDS011;63545;51.690;5.202;2022-10-30T06:03:22;29.00;;;11.53;;
74995;SDS011;63545;51.690;5.202;2022-10-30T06:05:47;22.63;;;12.27;;
74995;SDS011;63545;51.690;5.202;2022-10-30T06:08:13;24.63;;;11.53;;
74995;SDS011;63545;51.690;5.202;2022-10-30T06:10:40;20.85;;;11.70;;
74995;SDS011;63545;51.690;5.202;2022-10-30T06:13:06;24.75;;;12.50;;
74995;SDS011;63545;51.690;5.202;2022-10-30T06:15:31;27.87;;;13.00;;
74995;SDS011;63545;51.690;5.202;2022-10-30T06:17:57;26.13;;;12.68;;
74995;SDS011;63545;51.690;5.202;2022-10-30T06:20:24;26.37;;;12.00;;
74995;SDS011;63545;51.690;5.202;2022-10-30T06:23:09;29.40;;;12.57;;
74995;SDS011;63545;51.690;5.202;2022-10-30T06:25:36;24.98;;;11.60;;
74995;SDS011;63545;51.690;5.202;2022-10-30T06:28:01;25.33;;;11.68;;
74995;SDS011;63545;51.690;5.202;2022-10-30T06:30:27;25.63;;;11.77;;
74995;SDS011;63545;51.690;5.202;2022-10-30T06:32:57;26.55;;;12.02;;
74995;SDS011;63545;51.690;5.202;2022-10-30T06:35:22;30.75;;;12.40;;
74995;SDS011;63545;51.690;5.202;2022-10-30T06:37:47;20.90;;;11.17;;
74995;SDS011;63545;51.690;5.202;2022-10-30T06:40:13;27.20;;;11.68;;
74995;SDS011;63545;51.690;5.202;2022-10-30T06:42:46;24.02;;;11.77;;
74995;SDS011;63545;51.690;5.202;2022-10-30T06:45:16;23.73;;;12.50;;
74995;SDS011;63545;51.690;5.202;2022-10-30T06:47:42;27.33;;;12.57;;
74995;SDS011;63545;51.690;5.202;2022-10-30T06:50:12;33.20;;;12.87;;
74995;SDS011;63545;51.690;5.202;2022-10-30T06:52:39;24.00;;;12.73;;
74995;SDS011;63545;51.690;5.202;2022-10-30T06:55:04;26.73;;;12.73;;
74995;SDS011;63545;51.690;5.202;2022-10-30T06:57:30;24.40;;;13.48;;
74995;SDS011;63545;51.690;5.202;2022-10-30T06:59:55;28.60;;;11.90;;
74995;SDS011;63545;51.690;5.202;2022-10-30T07:02:20;25.47;;;11.03;;
74995;SDS011;63545;51.690;5.202;2022-10-30T07:04:46;27.13;;;12.50;;
74995;SDS011;63545;51.690;5.202;2022-10-30T07:07:12;22.43;;;12.33;;
74995;SDS011;63545;51.690;5.202;2022-10-30T07:09:37;24.50;;;12.68;;
74995;SDS011;63545;51.690;5.202;2022-10-30T07:12:03;25.90;;;12.63;;
74995;SDS011;63545;51.690;5.202;2022-10-30T07:14:28;27.27;;;12.60;;
74995;SDS011;63545;51.690;5.202;2022-10-30T07:16:54;30.57;;;12.97;;
74995;SDS011;63545;51.690;5.202;2022-10-30T07:19:20;25.63;;;11.93;;
74995;SDS011;63545;51.690;5.202;2022-10-30T07:21:45;30.08;;;14.10;;
74995;SDS011;63545;51.690;5.202;2022-10-30T07:24:10;29.47;;;12.47;;
74995;SDS011;63545;51.690;5.202;2022-10-30T07:26:36;23.50;;;13.40;;
74995;SDS011;63545;51.690;5.202;2022-10-30T07:29:02;28.17;;;13.23;;
74995;SDS011;63545;51.690;5.202;2022-10-30T07:31:28;26.33;;;12.88;;
74995;SDS011;63545;51.690;5.202;2022-10-30T07:33:54;30.00;;;13.97;;
74995;SDS011;63545;51.690;5.202;2022-10-30T07:36:19;24.17;;;13.50;;
74995;SDS011;63545;51.690;5.202;2022-10-30T07:38:46;27.48;;;13.77;;
74995;SDS011;63545;51.690;5.202;2022-10-30T07:41:12;27.50;;;14.17;;
74995;SDS011;63545;51.690;5.202;2022-10-30T07:43:37;27.97;;;13.40;;
74995;SDS011;63545;51.690;5.202;2022-10-30T07:46:02;28.60;;;13.73;;
74995;SDS011;63545;51.690;5.202;2022-10-30T07:48:28;24.87;;;14.10;;
74995;SDS011;63545;51.690;5.202;2022-10-30T07:50:53;26.13;;;14.03;;
74995;SDS011;63545;51.690;5.202;2022-10-30T07:53:18;32.63;;;14.70;;
74995;SDS011;63545;51.690;5.202;2022-10-30T07:55:44;28.80;;;15.60;;
74995;SDS011;63545;51.690;5.202;2022-10-30T07:58:09;26.97;;;14.00;;
74995;SDS011;63545;51.690;5.202;2022-10-30T08:00:34;30.83;;;15.07;;
74995;SDS011;63545;51.690;5.202;2022-10-30T08:03:00;28.87;;;15.07;;
74995;SDS011;63545;51.690;5.202;2022-10-30T08:05:25;22.48;;;14.05;;
74995;SDS011;63545;51.690;5.202;2022-10-30T08:07:50;30.73;;;14.83;;
74995;SDS011;63545;51.690;5.202;2022-10-30T08:10:16;30.87;;;14.33;;
74995;SDS011;63545;51.690;5.202;2022-10-30T08:12:41;28.30;;;14.83;;
74995;SDS011;63545;51.690;5.202;2022-10-30T08:15:08;25.80;;;14.43;;
74995;SDS011;63545;51.690;5.202;2022-10-30T08:17:44;29.35;;;15.25;;
74995;SDS011;63545;51.690;5.202;2022-10-30T08:20:11;28.02;;;14.68;;
74995;SDS011;63545;51.690;5.202;2022-10-30T08:22:51;30.83;;;15.40;;
74995;SDS011;63545;51.690;5.202;2022-10-30T08:25:18;36.28;;;16.40;;
74995;SDS011;63545;51.690;5.202;2022-10-30T08:27:51;30.63;;;16.70;;
74995;SDS011;63545;51.690;5.202;2022-10-30T08:30:18;29.15;;;15.52;;
74995;SDS011;63545;51.690;5.202;2022-10-30T08:32:44;30.27;;;16.23;;
74995;SDS011;63545;51.690;5.202;2022-10-30T08:35:09;26.23;;;16.27;;
74995;SDS011;63545;51.690;5.202;2022-10-30T08:37:34;30.53;;;16.67;;
74995;SDS011;63545;51.690;5.202;2022-10-30T08:40:00;29.17;;;16.80;;
74995;SDS011;63545;51.690;5.202;2022-10-30T08:42:25;31.47;;;17.00;;
74995;SDS011;63545;51.690;5.202;2022-10-30T08:44:50;29.98;;;16.75;;
74995;SDS011;63545;51.690;5.202;2022-10-30T08:47:16;36.80;;;17.50;;
74995;SDS011;63545;51.690;5.202;2022-10-30T08:49:41;33.53;;;16.70;;
74995;SDS011;63545;51.690;5.202;2022-10-30T08:52:07;33.90;;;16.93;;
74995;SDS011;63545;51.690;5.202;2022-10-30T08:54:33;31.98;;;17.08;;
74995;SDS011;63545;51.690;5.202;2022-10-30T08:56:58;33.97;;;17.03;;
74995;SDS011;63545;51.690;5.202;2022-10-30T08:59:23;28.73;;;16.00;;
74995;SDS011;63545;51.690;5.202;2022-10-30T09:01:49;30.17;;;16.47;;
74995;SDS011;63545;51.690;5.202;2022-10-30T09:04:14;28.65;;;15.60;;
74995;SDS011;63545;51.690;5.202;2022-10-30T09:06:40;33.23;;;16.17;;
74995;SDS011;63545;51.690;5.202;2022-10-30T09:09:05;32.67;;;15.50;;
74995;SDS011;63545;51.690;5.202;2022-10-30T09:11:31;26.40;;;15.88;;
74995;SDS011;63545;51.690;5.202;2022-10-30T09:13:56;30.10;;;15.63;;
74995;SDS011;63545;51.690;5.202;2022-10-30T09:16:21;27.30;;;15.20;;
74995;SDS011;63545;51.690;5.202;2022-10-30T09:18:47;24.93;;;14.90;;
74995;SDS011;63545;51.690;5.202;2022-10-30T09:21:12;26.47;;;15.33;;
74995;SDS011;63545;51.690;5.202;2022-10-30T09:23:37;34.10;;;15.00;;
74995;SDS011;63545;51.690;5.202;2022-10-30T09:26:03;28.90;;;14.83;;
74995;SDS011;63545;51.690;5.202;2022-10-30T09:28:28;28.57;;;15.13;;
74995;SDS011;63545;51.690;5.202;2022-10-30T09:30:53;30.60;;;15.90;;
74995;SDS011;63545;51.690;5.202;2022-10-30T09:33:20;31.00;;;15.50;;
74995;SDS011;63545;51.690;5.202;2022-10-30T09:35:46;27.02;;;15.02;;
74995;SDS011;63545;51.690;5.202;2022-10-30T09:38:11;27.13;;;15.13;;
74995;SDS011;63545;51.690;5.202;2022-10-30T09:40:40;26.20;;;14.80;;
74995;SDS011;63545;51.690;5.202;2022-10-30T09:48:24;31.48;;;15.27;;
74995;SDS011;63545;51.690;5.202;2022-10-30T10:04:38;28.80;;;14.33;;
74995;SDS011;63545;51.690;5.202;2022-10-30T10:09:46;27.48;;;15.13;;
74995;SDS011;63545;51.690;5.202;2022-10-30T10:12:22;31.50;;;15.27;;
74995;SDS011;63545;51.690;5.202;2022-10-30T10:14:55;28.10;;;15.52;;
74995;SDS011;63545;51.690;5.202;2022-10-30T10:17:40;30.17;;;14.17;;
74995;SDS011;63545;51.690;5.202;2022-10-30T10:20:12;25.60;;;15.10;;
74995;SDS011;63545;51.690;5.202;2022-10-30T10:22:49;31.55;;;14.68;;
74995;SDS011;63545;51.690;5.202;2022-10-30T10:25:16;30.30;;;13.73;;
74995;SDS011;63545;51.690;5.202;2022-10-30T10:38:22;26.05;;;11.90;;
74995;SDS011;63545;51.690;5.202;2022-10-30T10:51:56;19.90;;;11.10;;
74995;SDS011;63545;51.690;5.202;2022-10-30T10:54:46;26.52;;;11.35;;
74995;SDS011;63545;51.690;5.202;2022-10-30T10:57:25;29.60;;;11.43;;
74995;SDS011;63545;51.690;5.202;2022-10-30T10:59:53;27.88;;;10.50;;
74995;SDS011;63545;51.690;5.202;2022-10-30T11:02:30;21.80;;;10.85;;
74995;SDS011;63545;51.690;5.202;2022-10-30T11:05:01;26.42;;;10.68;;
74995;SDS011;63545;51.690;5.202;2022-10-30T11:07:43;25.17;;;10.95;;
74995;SDS011;63545;51.690;5.202;2022-10-30T11:10:11;24.73;;;10.30;;
74995;SDS011;63545;51.690;5.202;2022-10-30T11:12:39;25.52;;;10.23;;
74995;SDS011;63545;51.690;5.202;2022-10-30T11:15:17;23.67;;;10.23;;
74995;SDS011;63545;51.690;5.202;2022-10-30T11:23:45;20.83;;;10.03;;
74995;SDS011;63545;51.690;5.202;2022-10-30T11:31:26;20.38;;;9.80;;
74995;SDS011;63545;51.690;5.202;2022-10-30T11:33:58;22.10;;;9.95;;
74995;SDS011;63545;51.690;5.202;2022-10-30T12:12:53;25.92;;;10.13;;
74995;SDS011;63545;51.690;5.202;2022-10-30T12:15:20;24.57;;;9.43;;
74995;SDS011;63545;51.690;5.202;2022-10-30T12:18:00;24.88;;;9.48;;
74995;SDS011;63545;51.690;5.202;2022-10-30T12:20:26;19.63;;;9.40;;
74995;SDS011;63545;51.690;5.202;2022-10-30T12:22:52;24.55;;;9.32;;
74995;SDS011;63545;51.690;5.202;2022-10-30T12:27:46;16.80;;;8.15;;
74995;SDS011;63545;51.690;5.202;2022-10-30T12:30:15;21.08;;;8.93;;
74995;SDS011;63545;51.690;5.202;2022-10-30T12:35:15;20.67;;;9.35;;
74995;SDS011;63545;51.690;5.202;2022-10-30T12:37:44;20.27;;;8.55;;
74995;SDS011;63545;51.690;5.202;2022-10-30T12:40:15;20.88;;;8.43;;
74995;SDS011;63545;51.690;5.202;2022-10-30T12:43:09;29.60;;;9.20;;
74995;SDS011;63545;51.690;5.202;2022-10-30T12:45:40;20.60;;;9.30;;
74995;SDS011;63545;51.690;5.202;2022-10-30T12:48:24;21.85;;;9.43;;
74995;SDS011;63545;51.690;5.202;2022-10-30T12:53:40;22.55;;;9.68;;
74995;SDS011;63545;51.690;5.202;2022-10-30T12:56:12;26.10;;;10.48;;
74995;SDS011;63545;51.690;5.202;2022-10-30T13:02:31;25.67;;;10.20;;
74995;SDS011;63545;51.690;5.202;2022-10-30T13:04:38;19.83;;;10.45;;
74995;SDS011;63545;51.690;5.202;2022-10-30T13:12:25;26.90;;;10.67;;
74995;SDS011;63545;51.690;5.202;2022-10-30T13:14:56;22.70;;;10.50;;
74995;SDS011;63545;51.690;5.202;2022-10-30T13:17:24;22.90;;;10.57;;
74995;SDS011;63545;51.690;5.202;2022-10-30T13:19:49;23.85;;;10.50;;
74995;SDS011;63545;51.690;5.202;2022-10-30T13:27:44;23.98;;;9.80;;
74995;SDS011;63545;51.690;5.202;2022-10-30T13:30:18;24.33;;;9.80;;
74995;SDS011;63545;51.690;5.202;2022-10-30T13:32:52;23.48;;;10.43;;
74995;SDS011;63545;51.690;5.202;2022-10-30T13:35:51;17.65;;;9.50;;
74995;SDS011;63545;51.690;5.202;2022-10-30T13:38:31;20.98;;;10.43;;
74995;SDS011;63545;51.690;5.202;2022-10-30T13:43:46;24.10;;;9.57;;
74995;SDS011;63545;51.690;5.202;2022-10-30T13:54:21;24.42;;;9.77;;
74995;SDS011;63545;51.690;5.202;2022-10-30T13:56:49;19.43;;;9.47;;
74995;SDS011;63545;51.690;5.202;2022-10-30T14:02:04;19.50;;;9.10;;
74995;SDS011;63545;51.690;5.202;2022-10-30T14:05:02;20.98;;;8.50;;
74995;SDS011;63545;51.690;5.202;2022-10-30T14:07:29;18.63;;;9.23;;
74995;SDS011;63545;51.690;5.202;2022-10-30T14:10:07;27.17;;;9.10;;
74995;SDS011;63545;51.690;5.202;2022-10-30T14:15:23;22.60;;;8.68;;
74995;SDS011;63545;51.690;5.202;2022-10-30T14:20:36;46.50;;;10.95;;
74995;SDS011;63545;51.690;5.202;2022-10-30T14:23:06;21.00;;;9.10;;
74995;SDS011;63545;51.690;5.202;2022-10-30T14:25:33;16.75;;;9.35;;
74995;SDS011;63545;51.690;5.202;2022-10-30T14:27:58;20.88;;;9.55;;
74995;SDS011;63545;51.690;5.202;2022-10-30T14:30:24;19.63;;;9.90;;
74995;SDS011;63545;51.690;5.202;2022-10-30T14:32:51;21.73;;;10.20;;
74995;SDS011;63545;51.690;5.202;2022-10-30T14:35:26;22.63;;;10.03;;
74995;SDS011;63545;51.690;5.202;2022-10-30T14:43:05;24.98;;;11.20;;
74995;SDS011;63545;51.690;5.202;2022-10-30T14:50:56;30.17;;;11.43;;
74995;SDS011;63545;51.690;5.202;2022-10-30T14:56:17;24.33;;;10.43;;
74995;SDS011;63545;51.690;5.202;2022-10-30T15:06:42;16.35;;;8.00;;
74995;SDS011;63545;51.690;5.202;2022-10-30T15:15:10;21.52;;;9.43;;
74995;SDS011;63545;51.690;5.202;2022-10-30T15:17:38;21.33;;;9.10;;
74995;SDS011;63545;51.690;5.202;2022-10-30T15:20:38;22.33;;;9.35;;
74995;SDS011;63545;51.690;5.202;2022-10-30T15:22:57;18.50;;;8.73;;
74995;SDS011;63545;51.690;5.202;2022-10-30T15:25:33;24.23;;;8.63;;
74995;SDS011;63545;51.690;5.202;2022-10-30T15:28:01;28.60;;;9.30;;
74995;SDS011;63545;51.690;5.202;2022-10-30T15:30:26;22.23;;;9.97;;
74995;SDS011;63545;51.690;5.202;2022-10-30T15:32:52;23.57;;;10.27;;
74995;SDS011;63545;51.690;5.202;2022-10-30T15:35:21;24.35;;;9.98;;
74995;SDS011;63545;51.690;5.202;2022-10-30T15:37:55;20.13;;;9.80;;
74995;SDS011;63545;51.690;5.202;2022-10-30T15:40:27;23.30;;;11.17;;
74995;SDS011;63545;51.690;5.202;2022-10-30T15:42:54;19.85;;;8.50;;
74995;SDS011;63545;51.690;5.202;2022-10-30T15:45:20;20.13;;;8.13;;
74995;SDS011;63545;51.690;5.202;2022-10-30T15:47:51;15.18;;;7.25;;
74995;SDS011;63545;51.690;5.202;2022-10-30T15:50:39;18.13;;;6.97;;
74995;SDS011;63545;51.690;5.202;2022-10-30T15:53:18;12.90;;;6.60;;
74995;SDS011;63545;51.690;5.202;2022-10-30T15:55:44;17.25;;;6.60;;
74995;SDS011;63545;51.690;5.202;2022-10-30T15:58:10;15.45;;;6.55;;
74995;SDS011;63545;51.690;5.202;2022-10-30T16:00:40;17.40;;;6.20;;
74995;SDS011;63545;51.690;5.202;2022-10-30T16:05:36;19.63;;;6.60;;
74995;SDS011;63545;51.690;5.202;2022-10-30T16:08:02;16.25;;;5.07;;
74995;SDS011;63545;51.690;5.202;2022-10-30T16:10:32;12.73;;;3.63;;
74995;SDS011;63545;51.690;5.202;2022-10-30T16:12:58;7.28;;;2.92;;
74995;SDS011;63545;51.690;5.202;2022-10-30T16:15:29;9.30;;;3.20;;
74995;SDS011;63545;51.690;5.202;2022-10-30T16:17:59;12.73;;;3.75;;
74995;SDS011;63545;51.690;5.202;2022-10-30T16:20:28;8.75;;;3.67;;
74995;SDS011;63545;51.690;5.202;2022-10-30T16:22:54;13.37;;;3.40;;
74995;SDS011;63545;51.690;5.202;2022-10-30T16:25:19;7.73;;;3.70;;
74995;SDS011;63545;51.690;5.202;2022-10-30T16:27:45;13.32;;;3.45;;
74995;SDS011;63545;51.690;5.202;2022-10-30T16:30:13;11.83;;;3.60;;
74995;SDS011;63545;51.690;5.202;2022-10-30T16:32:40;13.00;;;3.63;;
74995;SDS011;63545;51.690;5.202;2022-10-30T16:35:08;10.00;;;3.60;;
74995;SDS011;63545;51.690;5.202;2022-10-30T16:37:35;11.57;;;3.95;;
74995;SDS011;63545;51.690;5.202;2022-10-30T16:40:10;10.02;;;4.30;;
74995;SDS011;63545;51.690;5.202;2022-10-30T16:42:37;12.40;;;4.38;;
74995;SDS011;63545;51.690;5.202;2022-10-30T16:45:48;11.63;;;4.93;;
74995;SDS011;63545;51.690;5.202;2022-10-30T16:47:52;14.23;;;5.53;;
74995;SDS011;63545;51.690;5.202;2022-10-30T16:50:31;12.98;;;4.72;;
74995;SDS011;63545;51.690;5.202;2022-10-30T16:53:04;9.82;;;4.57;;
74995;SDS011;63545;51.690;5.202;2022-10-30T16:55:31;14.63;;;5.13;;
74995;SDS011;63545;51.690;5.202;2022-10-30T16:57:57;9.38;;;4.75;;
74995;SDS011;63545;51.690;5.202;2022-10-30T17:00:26;13.65;;;5.43;;
74995;SDS011;63545;51.690;5.202;2022-10-30T17:02:52;16.30;;;5.28;;
74995;SDS011;63545;51.690;5.202;2022-10-30T17:07:53;17.33;;;6.18;;
74995;SDS011;63545;51.690;5.202;2022-10-30T17:10:33;11.20;;;5.20;;
74995;SDS011;63545;51.690;5.202;2022-10-30T17:16:24;15.50;;;7.57;;
74995;SDS011;63545;51.690;5.202;2022-10-30T17:18:52;12.90;;;5.97;;
74995;SDS011;63545;51.690;5.202;2022-10-30T17:21:19;14.85;;;5.97;;
74995;SDS011;63545;51.690;5.202;2022-10-30T17:23:54;15.70;;;6.88;;
74995;SDS011;63545;51.690;5.202;2022-10-30T17:26:20;17.13;;;6.95;;
74995;SDS011;63545;51.690;5.202;2022-10-30T17:28:46;12.57;;;6.43;;
74995;SDS011;63545;51.690;5.202;2022-10-30T17:33:46;14.10;;;6.13;;
74995;SDS011;63545;51.690;5.202;2022-10-30T17:36:13;13.85;;;4.78;;
74995;SDS011;63545;51.690;5.202;2022-10-30T17:38:38;12.50;;;5.70;;
74995;SDS011;63545;51.690;5.202;2022-10-30T17:41:04;13.07;;;5.90;;